createdAt,value
2023-06-12T00:01:28.582Z,100.00
2023-06-12T00:05:14.149Z,100.00
2023-06-12T00:08:48.506Z,100.00
2023-06-12T00:11:55.958Z,100.00
2023-06-12T00:15:04.736Z,100.00
2023-06-12T00:18:07.694Z,100.00
2023-06-12T00:21:12.512Z,100.00
2023-06-12T00:24:15.259Z,100.00
2023-06-12T00:27:18.084Z,100.00
2023-06-12T00:30:21.154Z,100.00
2023-06-12T00:33:24.229Z,100.00
2023-06-12T00:36:28.346Z,100.00
2023-06-12T00:39:31.073Z,100.00
2023-06-12T00:42:35.147Z,100.00
2023-06-12T00:45:38.403Z,100.00
2023-06-12T00:48:42.083Z,100.00
2023-06-12T00:51:45.247Z,100.00
2023-06-12T00:54:51.592Z,100.00
2023-06-12T00:57:54.960Z,100.00
2023-06-12T01:00:58.052Z,100.00
2023-06-12T01:04:08.134Z,100.00
2023-06-12T01:07:30.574Z,100.00
2023-06-12T01:10:38.367Z,100.00
2023-06-12T01:13:41.596Z,100.00
2023-06-12T01:16:47.108Z,100.00
2023-06-12T01:19:50.284Z,100.00
2023-06-12T01:23:00.621Z,100.00
2023-06-12T01:26:15.179Z,100.00
2023-06-12T01:29:41.793Z,100.00
2023-06-12T01:32:51.493Z,100.00
2023-06-12T01:35:55.012Z,100.00
2023-06-12T01:39:02.213Z,100.00
2023-06-12T01:42:08.400Z,100.00
2023-06-12T01:45:11.667Z,100.00
2023-06-12T01:48:15.689Z,100.00
2023-06-12T01:51:19.485Z,100.00
2023-06-12T01:54:26.714Z,100.00
2023-06-12T01:57:29.819Z,100.00
2023-06-12T02:00:33.525Z,100.00
2023-06-12T02:03:38.561Z,100.00
2023-06-12T02:06:41.571Z,100.00
2023-06-12T02:09:44.646Z,100.00
2023-06-12T02:12:47.560Z,100.00
2023-06-12T02:15:50.712Z,100.00
2023-06-12T02:18:53.479Z,100.00
2023-06-12T02:21:58.034Z,99.64
2023-06-12T02:25:01.354Z,100.00
2023-06-12T02:28:04.893Z,99.78
2023-06-12T02:31:08.184Z,99.92
2023-06-12T02:34:12.049Z,100.00
2023-06-12T02:37:16.675Z,99.55
2023-06-12T02:40:22.170Z,98.90
2023-06-12T02:43:25.118Z,99.33
2023-06-12T02:46:29.751Z,99.84
2023-06-12T02:49:32.995Z,99.06
2023-06-12T02:52:36.529Z,99.81
2023-06-12T02:55:41.226Z,99.82
2023-06-12T02:58:46.297Z,99.88
2023-06-12T03:01:49.644Z,100.00
2023-06-12T03:05:01.427Z,100.00
2023-06-12T03:08:04.904Z,100.00
2023-06-12T03:11:08.471Z,100.00
2023-06-12T03:14:15.896Z,100.00
2023-06-12T03:17:20.421Z,100.00
2023-06-12T03:20:26.009Z,100.00
2023-06-12T03:23:29.228Z,100.00
2023-06-12T03:26:35.223Z,100.00
2023-06-12T03:29:38.148Z,99.58
2023-06-12T03:32:42.197Z,99.53
2023-06-12T03:35:45.239Z,99.50
2023-06-12T03:38:49.813Z,98.67
2023-06-12T03:41:58.070Z,98.50
2023-06-12T03:45:18.280Z,98.57
2023-06-12T03:48:21.329Z,98.74
2023-06-12T03:51:24.586Z,98.30
2023-06-12T03:54:28.499Z,98.18
2023-06-12T03:57:31.274Z,98.96
2023-06-12T04:00:34.038Z,98.09
2023-06-12T04:03:39.779Z,97.56
2023-06-12T04:06:43.272Z,99.30
2023-06-12T04:09:47.319Z,98.63
2023-06-12T04:12:50.588Z,99.42
2023-06-12T04:15:53.475Z,99.29
2023-06-12T04:18:58.949Z,98.45
2023-06-12T04:22:02.899Z,98.45
2023-06-12T04:25:08.103Z,98.07
2023-06-12T04:28:14.962Z,97.67
2023-06-12T04:31:17.880Z,97.04
2023-06-12T04:34:20.792Z,96.81
2023-06-12T04:37:24.245Z,97.74
2023-06-12T04:40:28.818Z,96.75
2023-06-12T04:43:33.408Z,96.06
2023-06-12T04:46:37.249Z,95.72
2023-06-12T04:49:42.932Z,94.08
2023-06-12T04:52:45.796Z,93.80
2023-06-12T04:55:51.583Z,93.97
2023-06-12T04:58:54.945Z,93.02
2023-06-12T05:01:59.305Z,90.32
2023-06-12T05:05:02.315Z,88.17
2023-06-12T05:08:05.390Z,86.91
2023-06-12T05:11:08.543Z,83.85
2023-06-12T05:14:11.558Z,87.22
2023-06-12T05:17:15.385Z,83.18
2023-06-12T05:20:18.919Z,86.09
2023-06-12T05:23:21.912Z,83.47
2023-06-12T05:26:24.791Z,82.75
2023-06-12T05:29:28.577Z,82.18
2023-06-12T05:32:31.532Z,82.88
2023-06-12T05:35:35.708Z,81.23
2023-06-12T05:38:40.225Z,79.60
2023-06-12T05:41:43.454Z,80.44
2023-06-12T05:44:47.848Z,78.87
2023-06-12T05:47:51.575Z,79.43
2023-06-12T05:50:55.089Z,78.30
2023-06-12T05:54:03.199Z,77.32
2023-06-12T05:57:07.175Z,77.94
2023-06-12T06:00:13.599Z,79.38
2023-06-12T06:03:21.470Z,76.24
2023-06-12T06:06:24.786Z,74.80
2023-06-12T06:09:28.954Z,76.16
2023-06-12T06:12:32.952Z,73.60
2023-06-12T06:15:36.926Z,74.83
2023-06-12T06:18:41.425Z,74.92
2023-06-12T06:21:44.591Z,73.02
2023-06-12T06:24:47.824Z,72.53
2023-06-12T06:27:51.498Z,71.97
2023-06-12T06:30:54.883Z,72.29
2023-06-12T06:33:57.745Z,70.71
2023-06-12T06:37:00.586Z,71.53
2023-06-12T06:40:06.179Z,70.10
2023-06-12T06:43:10.274Z,67.45
2023-06-12T06:46:24.720Z,67.72
2023-06-12T06:49:31.507Z,64.81
2023-06-12T06:52:34.931Z,68.38
2023-06-12T06:55:38.851Z,65.57
2023-06-12T06:58:50.748Z,64.82
2023-06-12T07:02:06.216Z,64.10
2023-06-12T07:05:09.984Z,64.10
2023-06-12T07:08:14.131Z,64.70
2023-06-12T07:11:19.968Z,59.32
2023-06-12T07:14:34.181Z,59.53
2023-06-12T07:17:40.144Z,54.34
2023-06-12T07:20:46.144Z,52.82
2023-06-12T07:23:54.953Z,52.31
2023-06-12T07:27:04.231Z,51.48
2023-06-12T07:30:07.886Z,49.26
2023-06-12T07:33:11.961Z,49.53
2023-06-12T07:36:16.946Z,49.57
2023-06-12T07:39:20.204Z,47.86
2023-06-12T07:42:24.616Z,45.36
2023-06-12T07:45:27.642Z,43.75
2023-06-12T07:48:31.591Z,44.45
2023-06-12T07:51:38.253Z,42.86
2023-06-12T07:54:41.678Z,45.63
2023-06-12T07:57:49.031Z,44.53
2023-06-12T08:04:50.410Z,41.12
2023-06-12T08:07:56.306Z,40.41
2023-06-12T08:11:27.263Z,39.82
2023-06-12T08:14:53.341Z,39.88
2023-06-12T08:18:01.236Z,38.58
2023-06-12T08:21:04.234Z,39.72
2023-06-12T08:24:19.785Z,39.68
2023-06-12T08:27:48.654Z,39.71
2023-06-12T08:31:00.744Z,38.65
2023-06-12T08:34:09.214Z,36.38
2023-06-12T08:37:19.075Z,36.46
2023-06-12T08:40:21.940Z,37.72
2023-06-12T08:43:24.989Z,36.30
2023-06-12T08:46:34.549Z,35.42
2023-06-12T08:49:38.667Z,35.86
2023-06-12T08:52:42.943Z,35.30
2023-06-12T08:55:49.008Z,34.17
2023-06-12T08:58:54.408Z,35.58
2023-06-12T09:02:14.724Z,37.99
2023-06-12T09:05:31.510Z,36.05
2023-06-12T09:08:37.454Z,37.08
2023-06-12T09:11:40.478Z,34.69
2023-06-12T09:14:47.026Z,34.92
2023-06-12T09:17:54.393Z,31.92
2023-06-12T09:21:01.633Z,31.21
2023-06-12T09:24:12.502Z,32.99
2023-06-12T09:28:08.525Z,32.88
2023-06-12T09:31:13.171Z,33.88
2023-06-12T09:34:16.099Z,36.43
2023-06-12T09:37:19.044Z,35.83
2023-06-12T09:40:21.978Z,34.39
2023-06-12T09:43:34.641Z,34.31
2023-06-12T09:46:40.045Z,32.43
2023-06-12T09:49:50.138Z,34.89
2023-06-12T09:52:58.552Z,31.61
2023-06-12T09:56:02.362Z,31.27
2023-06-12T09:59:24.622Z,33.84
2023-06-12T10:02:28.794Z,33.52
2023-06-12T10:13:12.185Z,33.35
2023-06-12T10:16:20.340Z,35.80
2023-06-12T10:19:44.422Z,37.50
2023-06-12T10:22:52.561Z,35.38
2023-06-12T10:26:27.052Z,36.71
2023-06-12T10:30:26.910Z,35.24
2023-06-12T10:34:17.463Z,35.21
2023-06-12T10:37:49.514Z,37.12
2023-06-12T10:40:57.583Z,33.88
2023-06-12T10:44:44.844Z,34.64
2023-06-12T10:48:09.484Z,31.72
2023-06-12T10:52:06.416Z,32.51
2023-06-12T10:55:24.110Z,32.47
2023-06-12T10:58:28.015Z,31.33
2023-06-12T11:01:40.453Z,33.97
2023-06-12T11:04:58.734Z,35.26
2023-06-12T11:08:10.616Z,36.58
2023-06-12T11:11:15.321Z,39.86
2023-06-12T11:14:27.224Z,40.11
2023-06-12T11:17:30.554Z,37.22
2023-06-12T11:20:34.478Z,34.42
2023-06-12T11:23:43.930Z,38.52
2023-06-12T11:26:51.082Z,38.05
2023-06-12T11:30:04.073Z,37.98
2023-06-12T11:33:15.385Z,38.31
2023-06-12T11:36:18.283Z,38.59
2023-06-12T11:42:27.236Z,36.74
2023-06-12T11:45:32.416Z,41.39
2023-06-12T11:51:41.186Z,40.43
2023-06-12T11:58:58.673Z,40.87
2023-06-12T12:02:04.367Z,43.08
2023-06-12T12:05:12.941Z,41.45
2023-06-12T12:08:17.373Z,41.60
2023-06-12T12:11:24.007Z,43.11
2023-06-12T12:14:29.639Z,41.38
2023-06-12T12:17:33.491Z,42.25
2023-06-12T12:20:37.727Z,41.93
2023-06-12T12:23:42.949Z,40.25
2023-06-12T12:26:52.689Z,38.58
2023-06-12T12:30:00.352Z,41.85
2023-06-12T12:33:03.894Z,40.26
2023-06-12T12:36:07.096Z,41.18
2023-06-12T12:39:17.295Z,40.92
2023-06-12T12:42:20.186Z,41.70
2023-06-12T12:45:22.970Z,42.63
2023-06-12T12:48:25.903Z,41.29
2023-06-12T12:51:30.952Z,37.53
2023-06-12T12:54:33.902Z,37.07
2023-06-12T12:57:38.644Z,37.93
2023-06-12T13:00:41.617Z,38.70
2023-06-12T13:03:45.541Z,40.37
2023-06-12T13:06:48.667Z,38.07
2023-06-12T13:09:51.856Z,41.06
2023-06-12T13:12:58.866Z,40.94
2023-06-12T13:16:02.818Z,40.36
2023-06-12T13:19:05.833Z,41.57
2023-06-12T13:22:08.727Z,41.58
2023-06-12T13:25:11.887Z,40.19
2023-06-12T13:28:15.001Z,40.16
2023-06-12T13:31:17.823Z,41.01
2023-06-12T13:34:20.617Z,41.03
2023-06-12T13:37:32.599Z,41.37
2023-06-12T13:40:35.566Z,43.88
2023-06-12T13:43:38.436Z,41.70
2023-06-12T13:46:42.197Z,45.04
2023-06-12T13:49:45.113Z,42.90
2023-06-12T13:52:47.998Z,43.17
2023-06-12T13:55:53.681Z,43.94
2023-06-12T13:58:58.891Z,46.79
2023-06-12T14:02:02.768Z,44.41
2023-06-12T14:05:09.723Z,43.98
2023-06-12T14:08:13.247Z,44.17
2023-06-12T14:11:16.069Z,44.75
2023-06-12T14:14:18.946Z,44.57
2023-06-12T14:17:22.255Z,44.75
2023-06-12T14:20:25.060Z,45.72
2023-06-12T14:23:28.378Z,46.22
2023-06-12T14:26:34.607Z,45.78
2023-06-12T14:29:37.484Z,46.07
2023-06-12T14:32:40.324Z,47.18
2023-06-12T14:35:44.180Z,47.17
2023-06-12T14:38:47.089Z,47.91
2023-06-12T14:41:49.966Z,47.63
2023-06-12T14:44:52.838Z,47.75
2023-06-12T14:47:57.255Z,46.87
2023-06-12T14:51:00.508Z,47.98
2023-06-12T14:54:03.452Z,48.81
2023-06-12T14:57:06.590Z,49.24
2023-06-12T15:00:11.303Z,48.53
2023-06-12T15:03:14.521Z,49.19
2023-06-12T15:06:18.023Z,49.68
2023-06-12T15:09:21.378Z,49.51
2023-06-12T15:12:24.949Z,48.55
2023-06-12T15:15:29.352Z,49.64
2023-06-12T15:21:38.241Z,48.95
2023-06-12T15:24:41.746Z,49.71
2023-06-12T15:27:44.760Z,49.71
2023-06-12T15:30:47.610Z,49.83
2023-06-12T15:33:50.478Z,49.84
2023-06-12T15:36:56.109Z,48.96
2023-06-12T15:39:59.176Z,49.67
2023-06-12T15:43:03.087Z,48.85
2023-06-12T15:46:08.701Z,49.24
2023-06-12T15:49:11.756Z,49.56
2023-06-12T15:52:14.648Z,49.96
2023-06-12T15:55:18.002Z,49.58
2023-06-12T15:58:20.959Z,48.77
2023-06-12T16:01:23.989Z,48.28
2023-06-12T16:04:30.327Z,48.68
2023-06-12T16:07:34.290Z,48.78
2023-06-12T16:10:37.336Z,48.38
2023-06-12T16:13:40.229Z,48.29
2023-06-12T16:16:43.338Z,47.40
2023-06-12T16:19:46.277Z,48.44
2023-06-12T16:22:49.299Z,46.99
2023-06-12T16:25:52.121Z,46.90
2023-06-12T16:28:56.280Z,47.01
2023-06-12T16:31:59.145Z,48.71
2023-06-12T16:35:02.151Z,47.46
2023-06-12T16:38:05.127Z,49.38
2023-06-12T16:41:07.936Z,47.53
2023-06-12T16:44:10.825Z,47.98
2023-06-12T16:47:14.119Z,47.51
2023-06-12T16:50:17.818Z,48.69
2023-06-12T16:53:20.661Z,47.59
2023-06-12T16:56:23.552Z,48.84
2023-06-12T16:59:27.480Z,49.06
2023-06-12T17:02:31.026Z,48.61
2023-06-12T17:05:34.081Z,48.80
2023-06-12T17:08:38.677Z,50.07
2023-06-12T17:11:41.864Z,49.83
2023-06-12T17:14:44.742Z,50.26
2023-06-12T17:17:47.645Z,50.67
2023-06-12T17:20:50.469Z,50.27
2023-06-12T17:23:53.638Z,51.42
2023-06-12T17:26:57.036Z,52.01
2023-06-12T17:30:00.384Z,51.77
2023-06-12T17:33:03.690Z,52.15
2023-06-12T17:36:06.885Z,52.48
2023-06-12T17:39:10.154Z,53.21
2023-06-12T17:42:13.092Z,52.81
2023-06-12T17:45:15.875Z,54.28
2023-06-12T17:48:19.086Z,54.53
2023-06-12T17:51:22.085Z,53.96
2023-06-12T17:54:25.716Z,54.08
2023-06-12T17:57:28.546Z,54.19
2023-06-12T18:00:31.596Z,54.50
2023-06-12T18:03:34.533Z,55.17
2023-06-12T18:06:37.722Z,55.10
2023-06-12T18:09:40.666Z,56.33
2023-06-12T18:12:43.533Z,56.15
2023-06-12T18:15:47.164Z,56.94
2023-06-12T18:18:50.602Z,58.20
2023-06-12T18:21:53.678Z,57.53
2023-06-12T18:24:59.300Z,58.04
2023-06-12T18:28:02.082Z,57.76
2023-06-12T18:31:05.148Z,58.64
2023-06-12T18:34:09.554Z,60.67
2023-06-12T18:37:12.297Z,59.31
2023-06-12T18:40:15.081Z,59.93
2023-06-12T18:43:20.166Z,60.67
2023-06-12T18:46:23.965Z,61.53
2023-06-12T18:49:27.015Z,61.93
2023-06-12T18:52:29.756Z,62.05
2023-06-12T18:55:32.663Z,62.20
2023-06-12T18:58:35.476Z,62.61
2023-06-12T19:01:38.326Z,63.32
2023-06-12T19:04:41.956Z,64.04
2023-06-12T19:07:45.128Z,64.86
2023-06-12T19:10:48.132Z,65.12
2023-06-12T19:13:51.529Z,65.81
2023-06-12T19:16:54.386Z,65.75
2023-06-12T19:19:57.978Z,65.88
2023-06-12T19:23:01.079Z,66.91
2023-06-12T19:26:04.167Z,67.70
2023-06-12T19:29:37.901Z,68.87
2023-06-12T19:33:06.794Z,68.73
2023-06-12T19:36:09.667Z,69.60
2023-06-12T19:39:12.604Z,69.41
2023-06-12T19:42:16.970Z,70.32
2023-06-12T19:45:21.815Z,70.93
2023-06-12T19:48:55.743Z,70.44
2023-06-12T19:51:58.781Z,70.66
2023-06-12T19:55:01.877Z,70.46
2023-06-12T19:58:04.864Z,71.14
2023-06-12T20:01:07.721Z,71.71
2023-06-12T20:04:10.620Z,71.99
2023-06-12T20:07:13.808Z,72.08
2023-06-12T20:10:16.982Z,72.16
2023-06-12T20:13:19.749Z,72.12
2023-06-12T20:16:22.613Z,72.44
2023-06-12T20:19:25.572Z,72.79
2023-06-12T20:22:28.370Z,72.73
2023-06-12T20:25:33.052Z,72.91
2023-06-12T20:28:36.089Z,73.95
2023-06-12T20:32:10.730Z,74.37
2023-06-12T20:35:14.961Z,74.70
2023-06-12T20:38:18.134Z,74.57
2023-06-12T20:41:21.156Z,74.89
2023-06-12T20:44:24.238Z,75.42
2023-06-12T20:47:27.185Z,76.20
2023-06-12T20:50:30.346Z,76.15
2023-06-12T20:53:35.932Z,76.93
2023-06-12T20:56:59.097Z,78.77
2023-06-12T21:00:02.252Z,80.14
2023-06-12T21:03:05.246Z,82.75
2023-06-12T21:06:08.284Z,84.37
2023-06-12T21:09:11.641Z,86.64
2023-06-12T21:12:14.534Z,85.16
2023-06-12T21:15:19.832Z,84.01
2023-06-12T21:18:23.147Z,83.74
2023-06-12T21:21:27.044Z,81.89
2023-06-12T21:24:29.918Z,80.65
2023-06-12T21:27:32.964Z,80.13
2023-06-12T21:30:35.701Z,81.25
2023-06-12T21:33:39.494Z,80.06
2023-06-12T21:36:42.333Z,79.80
2023-06-12T21:39:45.229Z,78.56
2023-06-12T21:42:47.973Z,78.05
2023-06-12T21:45:50.874Z,77.43
2023-06-12T21:48:53.645Z,77.78
2023-06-12T21:51:56.537Z,78.17
2023-06-12T21:54:59.381Z,79.70
2023-06-12T21:58:02.586Z,80.13
2023-06-12T22:01:05.606Z,81.10
2023-06-12T22:04:17.686Z,80.58
2023-06-12T22:07:20.563Z,80.19
2023-06-12T22:10:23.434Z,79.56
2023-06-12T22:13:27.014Z,79.50
2023-06-12T22:16:29.770Z,78.01
2023-06-12T22:19:32.694Z,78.27
2023-06-12T22:22:35.544Z,78.36
2023-06-12T22:25:38.641Z,78.10
2023-06-12T22:28:41.598Z,78.58
2023-06-12T22:31:44.594Z,79.32
2023-06-12T22:34:47.398Z,79.95
2023-06-12T22:37:51.794Z,79.91
2023-06-12T22:40:54.773Z,81.86
2023-06-12T22:43:57.497Z,79.75
2023-06-12T22:47:00.976Z,79.53
2023-06-12T22:50:10.404Z,81.17
2023-06-12T22:53:14.453Z,80.91
2023-06-12T22:56:20.350Z,81.80
2023-06-12T22:59:23.177Z,81.80
2023-06-12T23:02:26.122Z,83.42
2023-06-12T23:05:29.056Z,82.69
2023-06-12T23:08:32.026Z,83.66
2023-06-12T23:11:34.908Z,84.56
2023-06-12T23:14:37.690Z,85.01
2023-06-12T23:17:40.652Z,84.45
2023-06-12T23:20:45.317Z,84.58
2023-06-12T23:23:48.365Z,85.90
2023-06-12T23:26:52.715Z,85.95
2023-06-12T23:29:55.652Z,87.00
2023-06-12T23:32:58.618Z,87.73
2023-06-12T23:36:01.425Z,88.56
2023-06-12T23:39:04.457Z,88.40
2023-06-12T23:42:07.750Z,89.38
2023-06-12T23:45:11.044Z,88.69
2023-06-12T23:48:13.782Z,89.45
2023-06-12T23:51:25.561Z,88.68
2023-06-12T23:54:30.520Z,88.88
2023-06-12T23:57:33.304Z,88.67
